createdAt,value
2023-04-29T00:00:43.551Z,9.681035
2023-04-29T00:01:43.552Z,9.681046
2023-04-29T00:02:43.711Z,9.681057
2023-04-29T00:03:43.661Z,9.681045
2023-04-29T00:04:43.679Z,9.681023
2023-04-29T00:05:43.592Z,9.680974
2023-04-29T00:06:43.507Z,9.681005
2023-04-29T00:07:43.508Z,9.680975
2023-04-29T00:08:43.480Z,9.680939
2023-04-29T00:09:43.516Z,9.680996
2023-04-29T00:10:43.460Z,9.681011
2023-04-29T00:11:43.476Z,9.681089
2023-04-29T00:12:43.448Z,9.681026
2023-04-29T00:13:43.451Z,9.681159
2023-04-29T00:14:43.460Z,9.681045
2023-04-29T00:15:43.454Z,9.681001
2023-04-29T00:16:43.492Z,9.681040
2023-04-29T00:17:43.459Z,9.681016
2023-04-29T00:18:43.433Z,9.680993
2023-04-29T00:19:43.421Z,9.681035
2023-04-29T00:20:43.609Z,9.681020
2023-04-29T00:21:43.447Z,9.680985
2023-04-29T00:22:43.426Z,9.680992
2023-04-29T00:23:43.411Z,9.681014
2023-04-29T00:24:43.423Z,9.681025
2023-04-29T00:25:43.371Z,9.681002
2023-04-29T00:26:43.396Z,9.681010
2023-04-29T00:27:43.442Z,9.681034
2023-04-29T00:28:43.335Z,9.681028
2023-04-29T00:29:43.354Z,9.681034
2023-04-29T00:30:43.341Z,9.681008
2023-04-29T00:31:43.355Z,9.681035
2023-04-29T00:32:43.328Z,9.681054
2023-04-29T00:33:43.359Z,9.681043
2023-04-29T00:34:43.308Z,9.680964
2023-04-29T00:35:43.332Z,9.681005
2023-04-29T00:36:43.299Z,9.680964
2023-04-29T00:37:43.293Z,9.681053
2023-04-29T00:38:43.285Z,9.681005
2023-04-29T00:39:43.281Z,9.681004
2023-04-29T00:40:43.257Z,9.681102
2023-04-29T00:41:43.276Z,9.681100
2023-04-29T00:42:43.258Z,9.681065
2023-04-29T00:43:43.247Z,9.681088
2023-04-29T00:44:43.249Z,9.681086
2023-04-29T00:45:43.236Z,9.681120
2023-04-29T00:46:43.287Z,9.681066
2023-04-29T00:47:43.293Z,9.681058
2023-04-29T00:48:43.202Z,9.681013
2023-04-29T00:49:43.229Z,9.681046
2023-04-29T00:50:43.216Z,9.681089
2023-04-29T00:51:43.217Z,9.681095
2023-04-29T00:52:43.179Z,9.681125
2023-04-29T00:53:43.207Z,9.681148
2023-04-29T00:54:43.170Z,9.681117
2023-04-29T00:55:43.188Z,9.681096
2023-04-29T00:56:43.155Z,9.681174
2023-04-29T00:57:43.163Z,9.681190
2023-04-29T00:58:43.138Z,9.681098
2023-04-29T00:59:43.164Z,9.681049
2023-04-29T01:00:43.149Z,9.681046
2023-04-29T01:01:43.156Z,9.681085
2023-04-29T01:02:43.186Z,9.681061
2023-04-29T01:03:43.216Z,9.681086
2023-04-29T01:04:43.168Z,9.681035
2023-04-29T01:05:43.146Z,9.681103
2023-04-29T01:06:43.104Z,9.681067
2023-04-29T01:07:43.102Z,9.681009
2023-04-29T01:08:43.081Z,9.681069
2023-04-29T01:09:43.120Z,9.681038
2023-04-29T01:10:43.085Z,9.681051
2023-04-29T01:11:43.096Z,9.681077
2023-04-29T01:12:43.074Z,9.681122
2023-04-29T01:13:43.075Z,9.681214
2023-04-29T01:14:43.057Z,9.681157
2023-04-29T01:15:43.070Z,9.681153
2023-04-29T01:16:43.034Z,9.681122
2023-04-29T01:17:43.098Z,9.681144
2023-04-29T01:18:43.037Z,9.681217
2023-04-29T01:19:43.018Z,9.681178
2023-04-29T01:20:42.981Z,9.681101
2023-04-29T01:21:43.002Z,9.681375
2023-04-29T01:22:42.989Z,9.681246
2023-04-29T01:23:43.000Z,9.681094
2023-04-29T01:24:43.008Z,9.681216
2023-04-29T01:25:43.001Z,9.681193
2023-04-29T01:26:42.963Z,9.681110
2023-04-29T01:27:42.956Z,9.681198
2023-04-29T01:28:42.928Z,9.681151
2023-04-29T01:29:42.967Z,9.681137
2023-04-29T01:30:42.923Z,9.681097
2023-04-29T01:31:42.970Z,9.681087
2023-04-29T01:32:42.952Z,9.681114
2023-04-29T01:33:42.930Z,9.681059
2023-04-29T01:34:42.915Z,9.681067
2023-04-29T01:35:42.938Z,9.681050
2023-04-29T01:36:42.889Z,9.681063
2023-04-29T01:37:42.923Z,9.681086
2023-04-29T01:38:42.896Z,9.681044
2023-04-29T01:39:42.877Z,9.680964
2023-04-29T01:40:42.863Z,9.681013
2023-04-29T01:41:42.867Z,9.681076
2023-04-29T01:42:42.860Z,9.681065
2023-04-29T01:43:42.857Z,9.681000
2023-04-29T01:44:42.842Z,9.681035
2023-04-29T01:45:42.845Z,9.681003
2023-04-29T01:46:42.862Z,9.681105
2023-04-29T01:47:42.888Z,9.681066
2023-04-29T01:48:42.814Z,9.681106
2023-04-29T01:49:42.814Z,9.681018
2023-04-29T01:50:42.804Z,9.681091
2023-04-29T01:51:42.817Z,9.681089
2023-04-29T01:52:42.788Z,9.681074
2023-04-29T01:53:42.784Z,9.681208
2023-04-29T01:54:42.768Z,9.681123
2023-04-29T01:55:42.778Z,9.681131
2023-04-29T01:56:42.757Z,9.681081
2023-04-29T01:57:42.779Z,9.681145
2023-04-29T01:58:42.727Z,9.681101
2023-04-29T01:59:42.744Z,9.681166
2023-04-29T02:00:42.794Z,9.681199
2023-04-29T02:01:42.758Z,9.681231
2023-04-29T02:02:42.776Z,9.681162
2023-04-29T02:03:42.935Z,9.681236
2023-04-29T02:04:42.715Z,9.681149
2023-04-29T02:05:42.721Z,9.681170
2023-04-29T02:06:42.672Z,9.681202
2023-04-29T02:07:42.690Z,9.681093
2023-04-29T02:08:42.681Z,9.681139
2023-04-29T02:09:42.717Z,9.681100
2023-04-29T02:10:42.678Z,9.681122
2023-04-29T02:11:42.706Z,9.681162
2023-04-29T02:12:42.661Z,9.681113
2023-04-29T02:13:42.687Z,9.681126
2023-04-29T02:14:42.641Z,9.681081
2023-04-29T02:15:42.646Z,9.681108
2023-04-29T02:16:42.707Z,9.681091
2023-04-29T02:17:42.706Z,9.681120
2023-04-29T02:18:42.631Z,9.681105
2023-04-29T02:19:42.610Z,9.681081
2023-04-29T02:20:42.610Z,9.681168
2023-04-29T02:21:42.612Z,9.681137
2023-04-29T02:22:42.616Z,9.681172
2023-04-29T02:23:42.618Z,9.681169
2023-04-29T02:24:42.566Z,9.681080
2023-04-29T02:25:42.613Z,9.681141
2023-04-29T02:26:42.555Z,9.681188
2023-04-29T02:27:42.591Z,9.681265
2023-04-29T02:28:42.583Z,9.681237
2023-04-29T02:29:42.572Z,9.681130
2023-04-29T02:30:42.554Z,9.681112
2023-04-29T02:31:42.593Z,9.681101
2023-04-29T02:32:42.579Z,9.681163
2023-04-29T02:33:42.560Z,9.681098
2023-04-29T02:34:42.513Z,9.681166
2023-04-29T02:35:42.569Z,9.681139
2023-04-29T02:36:42.545Z,9.681120
2023-04-29T02:37:42.512Z,9.681013
2023-04-29T02:38:42.485Z,9.681080
2023-04-29T02:39:42.492Z,9.681037
2023-04-29T02:40:42.475Z,9.681056
2023-04-29T02:41:42.517Z,9.681123
2023-04-29T02:42:42.450Z,9.681181
2023-04-29T02:43:42.510Z,9.681116
2023-04-29T02:44:42.473Z,9.681041
2023-04-29T02:45:42.463Z,9.681059
2023-04-29T02:46:42.454Z,9.681056
2023-04-29T02:47:42.510Z,9.680977
2023-04-29T02:48:42.430Z,9.681085
2023-04-29T02:49:42.453Z,9.681074
2023-04-29T02:50:42.415Z,9.681046
2023-04-29T02:51:42.452Z,9.681022
2023-04-29T02:52:42.412Z,9.681048
2023-04-29T02:53:42.452Z,9.681064
2023-04-29T02:54:42.404Z,9.681068
2023-04-29T02:55:42.407Z,9.680996
2023-04-29T02:56:42.374Z,9.681163
2023-04-29T02:57:42.399Z,9.681136
2023-04-29T02:58:42.390Z,9.681381
2023-04-29T02:59:42.390Z,9.681506
2023-04-29T03:00:42.352Z,9.681248
2023-04-29T03:01:42.424Z,9.681219
2023-04-29T03:02:42.450Z,9.681219
2023-04-29T03:03:42.561Z,9.681171
2023-04-29T03:04:42.369Z,9.681078
2023-04-29T03:05:42.352Z,9.681138
2023-04-29T03:06:42.328Z,9.681211
2023-04-29T03:07:42.336Z,9.681040
2023-04-29T03:08:42.384Z,9.680945
2023-04-29T03:09:42.329Z,9.681080
2023-04-29T03:10:42.302Z,9.681096
2023-04-29T03:11:42.304Z,9.681149
2023-04-29T03:12:42.297Z,9.681163
2023-04-29T03:13:42.289Z,9.681154
2023-04-29T03:14:42.306Z,9.681106
2023-04-29T03:15:42.273Z,9.681117
2023-04-29T03:16:42.291Z,9.681090
2023-04-29T03:17:42.299Z,9.681172
2023-04-29T03:18:42.280Z,9.681140
2023-04-29T03:19:42.253Z,9.681090
2023-04-29T03:20:42.265Z,9.681027
2023-04-29T03:21:42.234Z,9.681089
2023-04-29T03:22:42.208Z,9.681054
2023-04-29T03:23:42.218Z,9.681130
2023-04-29T03:24:42.212Z,9.681130
2023-04-29T03:25:42.257Z,9.681183
2023-04-29T03:26:42.223Z,9.681154
2023-04-29T03:27:42.189Z,9.681092
2023-04-29T03:28:42.172Z,9.680990
2023-04-29T03:29:42.191Z,9.680932
2023-04-29T03:30:42.176Z,9.681022
2023-04-29T03:31:42.287Z,9.681094
2023-04-29T03:32:42.181Z,9.681084
2023-04-29T03:33:42.138Z,9.681092
2023-04-29T03:34:42.156Z,9.681101
2023-04-29T03:35:42.151Z,9.681155
2023-04-29T03:36:42.137Z,9.681103
2023-04-29T03:37:42.124Z,9.681047
2023-04-29T03:38:42.097Z,9.681094
2023-04-29T03:39:42.157Z,9.681096
2023-04-29T03:40:42.090Z,9.681094
2023-04-29T03:41:42.113Z,9.681053
2023-04-29T03:42:42.095Z,9.681030
2023-04-29T03:43:42.089Z,9.681096
2023-04-29T03:44:42.074Z,9.681116
2023-04-29T03:45:42.115Z,9.681082
2023-04-29T03:46:42.109Z,9.681099
2023-04-29T03:47:42.089Z,9.681068
2023-04-29T03:48:42.067Z,9.681042
2023-04-29T03:49:42.066Z,9.681087
2023-04-29T03:50:42.026Z,9.681129
2023-04-29T03:51:42.050Z,9.681066
2023-04-29T03:52:42.018Z,9.681050
2023-04-29T03:53:42.021Z,9.681093
2023-04-29T03:54:41.988Z,9.681001
2023-04-29T03:55:41.997Z,9.681046
2023-04-29T03:56:42.005Z,9.681024
2023-04-29T03:57:42.672Z,9.681035
2023-04-29T03:58:41.995Z,9.681082
2023-04-29T03:59:41.993Z,9.681054
2023-04-29T04:00:41.962Z,9.681070
2023-04-29T04:01:42.051Z,9.681089
2023-04-29T04:02:42.196Z,9.681080
2023-04-29T04:03:42.111Z,9.681010
2023-04-29T04:04:41.991Z,9.680983
2023-04-29T04:05:41.925Z,9.680989
2023-04-29T04:06:41.901Z,9.681004
2023-04-29T04:07:41.935Z,9.681022
2023-04-29T04:08:41.902Z,9.681014
2023-04-29T04:09:41.918Z,9.681060
2023-04-29T04:10:48.898Z,9.681088
2023-04-29T04:11:41.882Z,9.681037
2023-04-29T04:12:44.150Z,9.680993
2023-04-29T04:13:41.871Z,9.681005
2023-04-29T04:14:41.833Z,9.681023
2023-04-29T04:15:41.846Z,9.680976
2023-04-29T04:16:41.909Z,9.681061
2023-04-29T04:17:41.849Z,9.680987
2023-04-29T04:18:41.838Z,9.681038
2023-04-29T04:19:41.815Z,9.680975
2023-04-29T04:20:41.794Z,9.680992
2023-04-29T04:21:41.808Z,9.681055
2023-04-29T04:22:41.801Z,9.681077
2023-04-29T04:23:41.808Z,9.681066
2023-04-29T04:24:41.793Z,9.681044
2023-04-29T04:25:41.790Z,9.680999
2023-04-29T04:26:41.754Z,9.681086
2023-04-29T04:27:41.826Z,9.681046
2023-04-29T04:28:41.779Z,9.680988
2023-04-29T04:29:41.775Z,9.681013
2023-04-29T04:30:41.744Z,9.681028
2023-04-29T04:31:41.758Z,9.681041
2023-04-29T04:32:41.786Z,9.681021
2023-04-29T04:33:41.734Z,9.680999
2023-04-29T04:34:41.724Z,9.681042
2023-04-29T04:35:41.723Z,9.680981
2023-04-29T04:36:41.694Z,9.681045
2023-04-29T04:37:41.708Z,9.681036
2023-04-29T04:38:41.700Z,9.681034
2023-04-29T04:39:41.702Z,9.681025
2023-04-29T04:40:41.671Z,9.681041
2023-04-29T04:41:41.677Z,9.681048
2023-04-29T04:42:41.658Z,9.681026
2023-04-29T04:43:41.697Z,9.681080
2023-04-29T04:44:41.662Z,9.681089
2023-04-29T04:45:41.669Z,9.681072
2023-04-29T04:46:41.646Z,9.681082
2023-04-29T04:47:41.676Z,9.681142
2023-04-29T04:48:41.620Z,9.681057
2023-04-29T04:49:41.654Z,9.681107
2023-04-29T04:50:41.643Z,9.681046
2023-04-29T04:51:41.615Z,9.681044
2023-04-29T04:52:41.595Z,9.681120
2023-04-29T04:53:41.651Z,9.681088
2023-04-29T04:54:41.620Z,9.681122
2023-04-29T04:55:41.603Z,9.681082
2023-04-29T04:56:41.565Z,9.681000
2023-04-29T04:57:41.589Z,9.681049
2023-04-29T04:58:41.571Z,9.681068
2023-04-29T04:59:41.574Z,9.681067
2023-04-29T05:00:41.594Z,9.681074
2023-04-29T05:01:41.599Z,9.681046
2023-04-29T05:02:41.654Z,9.681093
2023-04-29T05:03:41.678Z,9.681013
2023-04-29T05:04:41.515Z,9.681120
2023-04-29T05:05:41.546Z,9.681064
2023-04-29T05:06:41.512Z,9.681096
2023-04-29T05:07:41.501Z,9.681213
2023-04-29T05:08:41.494Z,9.681130
2023-04-29T05:09:41.495Z,9.681185
2023-04-29T05:10:41.488Z,9.681253
2023-04-29T05:11:42.486Z,9.681194
2023-04-29T05:12:41.472Z,9.681171
2023-04-29T05:13:41.506Z,9.681184
2023-04-29T05:14:41.458Z,9.681111
2023-04-29T05:15:41.450Z,9.681177
2023-04-29T05:16:41.482Z,9.681154
2023-04-29T05:17:41.498Z,9.681218
2023-04-29T05:18:41.413Z,9.681121
2023-04-29T05:19:41.462Z,9.681088
2023-04-29T05:20:41.393Z,9.681149
2023-04-29T05:21:41.420Z,9.681110
2023-04-29T05:22:41.428Z,9.681077
2023-04-29T05:23:41.419Z,9.681067
2023-04-29T05:24:41.421Z,9.681007
2023-04-29T05:25:41.388Z,9.681007
2023-04-29T05:26:41.393Z,9.680996
2023-04-29T05:27:41.393Z,9.681019
2023-04-29T05:28:41.350Z,9.681037
2023-04-29T05:29:41.364Z,9.681086
2023-04-29T05:30:41.369Z,9.681103
2023-04-29T05:31:41.378Z,9.681018
2023-04-29T05:32:41.331Z,9.681058
2023-04-29T05:33:41.337Z,9.681042
2023-04-29T05:34:41.324Z,9.681042
2023-04-29T05:35:41.327Z,9.681105
2023-04-29T05:36:41.285Z,9.681067
2023-04-29T05:37:41.338Z,9.680939
2023-04-29T05:38:41.322Z,9.681009
2023-04-29T05:39:41.277Z,9.681008
2023-04-29T05:40:41.267Z,9.681059
2023-04-29T05:41:41.280Z,9.681048
2023-04-29T05:42:41.273Z,9.681033
2023-04-29T05:43:41.307Z,9.681011
2023-04-29T05:44:41.319Z,9.680994
2023-04-29T05:45:41.245Z,9.681042
2023-04-29T05:46:41.353Z,9.681105
2023-04-29T05:47:41.295Z,9.681069
2023-04-29T05:48:41.240Z,9.681040
2023-04-29T05:49:41.213Z,9.681053
2023-04-29T05:50:41.219Z,9.681007
2023-04-29T05:51:41.249Z,9.681129
2023-04-29T05:52:41.209Z,9.681110
2023-04-29T05:53:41.213Z,9.681107
2023-04-29T05:54:41.157Z,9.681025
2023-04-29T05:55:41.199Z,9.681054
2023-04-29T05:56:41.170Z,9.681183
2023-04-29T05:57:41.194Z,9.681212
2023-04-29T05:58:41.161Z,9.681162
2023-04-29T05:59:41.313Z,9.681086
2023-04-29T06:00:41.127Z,9.681131
2023-04-29T06:01:41.172Z,9.681110
2023-04-29T06:02:50.687Z,9.681179
2023-04-29T06:03:42.350Z,9.681063
2023-04-29T06:04:41.646Z,9.681067
2023-04-29T06:05:41.628Z,9.681065
2023-04-29T06:06:41.089Z,9.681093
2023-04-29T06:07:41.098Z,9.681050
2023-04-29T06:08:41.090Z,9.681065
2023-04-29T06:09:41.109Z,9.681036
2023-04-29T06:10:41.123Z,9.681101
2023-04-29T06:11:41.084Z,9.681091
2023-04-29T06:12:41.028Z,9.681032
2023-04-29T06:13:41.051Z,9.681096
2023-04-29T06:14:41.048Z,9.681085
2023-04-29T06:15:41.070Z,9.681108
2023-04-29T06:16:41.116Z,9.681235
2023-04-29T06:17:41.030Z,9.681162
2023-04-29T06:18:40.988Z,9.681199
2023-04-29T06:19:41.003Z,9.681096
2023-04-29T06:20:40.981Z,9.681113
2023-04-29T06:21:40.992Z,9.681149
2023-04-29T06:22:40.990Z,9.681005
2023-04-29T06:23:40.975Z,9.681019
2023-04-29T06:24:40.950Z,9.680913
2023-04-29T06:25:40.962Z,9.681013
2023-04-29T06:26:40.952Z,9.681042
2023-04-29T06:27:40.980Z,9.681087
2023-04-29T06:28:40.945Z,9.681035
2023-04-29T06:29:40.930Z,9.681035
2023-04-29T06:30:40.903Z,9.681030
2023-04-29T06:31:40.966Z,9.681034
2023-04-29T06:32:40.964Z,9.681022
2023-04-29T06:33:40.897Z,9.681006
2023-04-29T06:34:40.898Z,9.681085
2023-04-29T06:35:40.883Z,9.681079
2023-04-29T06:36:40.868Z,9.681054
2023-04-29T06:37:40.884Z,9.680979
2023-04-29T06:38:40.881Z,9.681049
2023-04-29T06:39:40.866Z,9.681126
2023-04-29T06:40:40.829Z,9.681202
2023-04-29T06:41:40.851Z,9.681087
2023-04-29T06:42:40.854Z,9.681054
2023-04-29T06:43:40.816Z,9.681101
2023-04-29T06:44:40.843Z,9.681151
2023-04-29T06:45:40.804Z,9.681244
2023-04-29T06:46:40.848Z,9.681243
2023-04-29T06:47:40.917Z,9.681230
2023-04-29T06:48:40.814Z,9.680979
2023-04-29T06:49:40.827Z,9.681065
2023-04-29T06:50:40.754Z,9.681063
2023-04-29T06:51:40.804Z,9.681073
2023-04-29T06:52:40.744Z,9.681032
2023-04-29T06:53:40.748Z,9.681034
2023-04-29T06:54:40.726Z,9.681078
2023-04-29T06:55:40.773Z,9.681125
2023-04-29T06:56:40.727Z,9.681040
2023-04-29T06:57:40.726Z,9.680972
2023-04-29T06:58:40.704Z,9.681037
2023-04-29T06:59:40.709Z,9.681106
2023-04-29T07:00:40.690Z,9.681053
2023-04-29T07:01:43.428Z,9.681089
2023-04-29T07:02:40.763Z,9.681071
2023-04-29T07:03:40.811Z,9.681024
2023-04-29T07:04:40.685Z,9.681085
2023-04-29T07:05:40.644Z,9.681104
2023-04-29T07:06:40.649Z,9.681093
2023-04-29T07:07:40.632Z,9.681143
2023-04-29T07:08:40.607Z,9.681086
2023-04-29T07:09:40.620Z,9.681134
2023-04-29T07:10:40.609Z,9.681102
2023-04-29T07:11:40.637Z,9.681084
2023-04-29T07:12:40.579Z,9.681164
2023-04-29T07:13:40.590Z,9.681123
2023-04-29T07:14:40.564Z,9.681150
2023-04-29T07:15:40.569Z,9.681124
2023-04-29T07:16:40.679Z,9.681071
2023-04-29T07:17:40.668Z,9.681127
2023-04-29T07:18:40.582Z,9.681158
2023-04-29T07:19:40.545Z,9.681145
2023-04-29T07:20:40.557Z,9.681147
2023-04-29T07:21:40.545Z,9.681139
2023-04-29T07:22:40.528Z,9.681076
2023-04-29T07:23:40.545Z,9.681106
2023-04-29T07:24:40.563Z,9.681058
2023-04-29T07:25:40.556Z,9.681087
2023-04-29T07:26:40.506Z,9.681042
2023-04-29T07:27:40.540Z,9.681017
2023-04-29T07:28:40.458Z,9.681039
2023-04-29T07:29:40.541Z,9.681003
2023-04-29T07:30:40.507Z,9.681037
2023-04-29T07:31:40.460Z,9.681054
2023-04-29T07:32:40.446Z,9.681065
2023-04-29T07:33:40.448Z,9.681048
2023-04-29T07:34:40.419Z,9.681076
2023-04-29T07:35:40.417Z,9.681051
2023-04-29T07:36:40.381Z,9.681061
2023-04-29T07:37:42.642Z,9.681055
2023-04-29T07:38:40.429Z,9.681079
2023-04-29T07:39:40.427Z,9.681072
2023-04-29T07:40:40.379Z,9.681095
2023-04-29T07:41:40.384Z,9.681103
2023-04-29T07:42:40.389Z,9.681021
2023-04-29T07:43:42.263Z,9.681067
2023-04-29T07:44:40.365Z,9.681015
2023-04-29T07:45:40.335Z,9.681073
2023-04-29T07:46:40.467Z,9.681033
2023-04-29T07:47:40.369Z,9.681011
2023-04-29T07:48:40.321Z,9.681025
2023-04-29T07:49:40.312Z,9.681056
2023-04-29T07:50:40.288Z,9.681072
2023-04-29T07:51:40.295Z,9.681079
2023-04-29T07:52:40.311Z,9.681088
2023-04-29T07:53:40.281Z,9.681086
2023-04-29T07:54:40.287Z,9.681097
2023-04-29T07:55:40.266Z,9.681051
2023-04-29T07:56:40.231Z,9.681017
2023-04-29T07:57:40.239Z,9.681035
2023-04-29T07:58:40.266Z,9.681067
2023-04-29T07:59:40.230Z,9.681074
2023-04-29T08:00:40.224Z,9.681067
2023-04-29T08:01:40.228Z,9.681092
2023-04-29T08:02:40.303Z,9.681126
2023-04-29T08:03:41.819Z,9.681050
2023-04-29T08:04:40.377Z,9.681051
2023-04-29T08:05:40.214Z,9.680941
2023-04-29T08:06:40.155Z,9.680987
2023-04-29T08:07:40.170Z,9.680949
2023-04-29T08:08:40.143Z,9.680958
2023-04-29T08:09:40.169Z,9.680956
2023-04-29T08:10:40.143Z,9.680966
2023-04-29T08:11:40.136Z,9.680996
2023-04-29T08:12:40.106Z,9.680982
2023-04-29T08:13:40.119Z,9.681020
2023-04-29T08:14:40.144Z,9.681023
2023-04-29T08:15:40.140Z,9.681035
2023-04-29T08:16:40.206Z,9.681039
2023-04-29T08:17:41.093Z,9.681046
2023-04-29T08:18:40.073Z,9.681067
2023-04-29T08:19:40.078Z,9.681072
2023-04-29T08:20:40.087Z,9.681001
2023-04-29T08:21:40.107Z,9.681049
2023-04-29T08:22:40.053Z,9.681113
2023-04-29T08:23:40.084Z,9.681124
2023-04-29T08:24:40.044Z,9.681082
2023-04-29T08:25:40.042Z,9.681068
2023-04-29T08:26:40.097Z,9.681050
2023-04-29T08:27:40.064Z,9.681034
2023-04-29T08:28:40.020Z,9.681009
2023-04-29T08:29:40.017Z,9.680976
2023-04-29T08:30:40.003Z,9.680917
2023-04-29T08:31:40.038Z,9.681029
2023-04-29T08:32:40.004Z,9.681178
2023-04-29T08:33:39.986Z,9.681211
2023-04-29T08:34:39.990Z,9.681282
2023-04-29T08:35:39.994Z,9.681131
2023-04-29T08:36:39.994Z,9.681135
2023-04-29T08:37:39.980Z,9.681120
2023-04-29T08:38:40.050Z,9.681121
2023-04-29T08:39:39.934Z,9.681044
2023-04-29T08:40:39.921Z,9.681085
2023-04-29T08:41:39.920Z,9.681084
2023-04-29T08:42:39.941Z,9.681049
2023-04-29T08:43:39.952Z,9.681018
2023-04-29T08:44:39.909Z,9.680921
2023-04-29T08:45:40.058Z,9.680977
2023-04-29T08:46:39.877Z,9.681010
2023-04-29T08:47:39.958Z,9.681021
2023-04-29T08:48:41.295Z,9.681026
2023-04-29T08:49:39.882Z,9.680943
2023-04-29T08:50:39.884Z,9.680916
2023-04-29T08:51:39.858Z,9.680934
2023-04-29T08:52:39.861Z,9.680929
2023-04-29T08:53:39.836Z,9.680938
2023-04-29T08:54:39.838Z,9.680954
2023-04-29T08:55:39.823Z,9.680922
2023-04-29T08:56:39.854Z,9.680900
2023-04-29T08:57:40.094Z,9.680844
2023-04-29T08:58:39.811Z,9.680799
2023-04-29T08:59:39.836Z,9.680787
2023-04-29T09:00:39.773Z,9.680776
2023-04-29T09:01:39.820Z,9.680867
2023-04-29T09:02:39.868Z,9.680903
2023-04-29T09:03:39.874Z,9.680805
2023-04-29T09:04:39.762Z,9.680836
2023-04-29T09:05:39.792Z,9.680874
2023-04-29T09:06:39.739Z,9.680837
2023-04-29T09:07:39.749Z,9.680776
2023-04-29T09:08:39.766Z,9.680947
2023-04-29T09:09:39.729Z,9.680942
2023-04-29T09:10:39.704Z,9.681001
2023-04-29T09:11:39.714Z,9.680890
2023-04-29T09:12:39.688Z,9.680827
2023-04-29T09:13:39.733Z,9.681179
2023-04-29T09:14:39.690Z,9.681277
2023-04-29T09:15:39.696Z,9.680997
2023-04-29T09:16:39.708Z,9.680880
2023-04-29T09:17:39.733Z,9.681035
2023-04-29T09:18:39.687Z,9.681072
2023-04-29T09:19:39.683Z,9.681204
2023-04-29T09:20:39.639Z,9.681075
2023-04-29T09:21:39.660Z,9.680946
2023-04-29T09:22:39.624Z,9.680897
2023-04-29T09:23:39.646Z,9.680919
2023-04-29T09:24:39.632Z,9.680973
2023-04-29T09:25:39.652Z,9.680944
2023-04-29T09:26:39.599Z,9.681004
2023-04-29T09:27:39.603Z,9.681022
2023-04-29T09:28:39.572Z,9.681077
2023-04-29T09:29:39.588Z,9.681089
2023-04-29T09:30:39.582Z,9.681088
2023-04-29T09:31:39.676Z,9.680994
2023-04-29T09:32:39.589Z,9.680998
2023-04-29T09:33:39.570Z,9.680967
2023-04-29T09:34:39.539Z,9.680991
2023-04-29T09:35:39.568Z,9.680998
2023-04-29T09:36:39.550Z,9.681056
2023-04-29T09:37:39.541Z,9.681010
2023-04-29T09:38:39.509Z,9.681014
2023-04-29T09:39:39.527Z,9.680995
2023-04-29T09:40:56.832Z,9.680967
2023-04-29T09:41:40.527Z,9.680912
2023-04-29T09:42:39.476Z,9.680922
2023-04-29T09:43:39.478Z,9.681057
2023-04-29T09:44:39.455Z,9.681078
2023-04-29T09:45:39.506Z,9.680984
2023-04-29T09:46:39.518Z,9.681006
2023-04-29T09:47:39.529Z,9.681035
2023-04-29T09:48:39.440Z,9.681090
2023-04-29T09:49:39.452Z,9.681027
2023-04-29T09:50:39.438Z,9.680893
2023-04-29T09:51:39.450Z,9.680995
2023-04-29T09:52:39.441Z,9.681001
2023-04-29T09:53:39.417Z,9.681038
2023-04-29T09:54:39.380Z,9.681056
2023-04-29T09:55:39.395Z,9.681099
2023-04-29T09:56:39.384Z,9.681045
2023-04-29T09:57:39.378Z,9.681006
2023-04-29T09:58:39.365Z,9.680907
2023-04-29T09:59:39.355Z,9.681044
2023-04-29T10:00:39.331Z,9.681075
2023-04-29T10:01:39.467Z,9.680881
2023-04-29T10:02:39.410Z,9.681035
2023-04-29T10:03:39.750Z,9.681072
2023-04-29T10:04:40.260Z,9.681103
2023-04-29T10:05:39.310Z,9.681103
2023-04-29T10:06:39.280Z,9.681065
2023-04-29T10:07:39.297Z,9.681123
2023-04-29T10:08:39.321Z,9.681073
2023-04-29T10:09:39.277Z,9.681135
2023-04-29T10:10:39.302Z,9.681046
2023-04-29T10:11:39.269Z,9.681101
2023-04-29T10:12:39.248Z,9.681156
2023-04-29T10:13:39.253Z,9.681042
2023-04-29T10:14:39.234Z,9.681096
2023-04-29T10:15:46.339Z,9.681065
2023-04-29T10:16:39.246Z,9.681208
2023-04-29T10:17:39.227Z,9.681008
2023-04-29T10:18:39.268Z,9.681079
2023-04-29T10:19:39.204Z,9.681032
2023-04-29T10:20:39.195Z,9.681059
2023-04-29T10:21:39.182Z,9.681129
2023-04-29T10:22:39.196Z,9.681218
2023-04-29T10:23:39.159Z,9.681220
2023-04-29T10:24:39.167Z,9.681322
2023-04-29T10:25:39.154Z,9.681248
2023-04-29T10:26:39.144Z,9.681414
2023-04-29T10:27:39.173Z,9.681352
2023-04-29T10:28:39.103Z,9.681366
2023-04-29T10:29:39.180Z,9.681323
2023-04-29T10:30:39.114Z,9.681226
2023-04-29T10:31:39.170Z,9.681259
2023-04-29T10:32:50.423Z,9.681149
2023-04-29T10:33:40.144Z,9.681101
2023-04-29T10:34:39.066Z,9.681097
2023-04-29T10:35:39.099Z,9.681135
2023-04-29T10:36:39.080Z,9.681153
2023-04-29T10:37:39.217Z,9.681041
2023-04-29T10:38:39.042Z,9.681016
2023-04-29T10:39:39.058Z,9.681081
2023-04-29T10:40:39.053Z,9.681055
2023-04-29T10:41:39.040Z,9.681023
2023-04-29T10:42:39.014Z,9.681044
2023-04-29T10:43:39.027Z,9.681068
2023-04-29T10:44:38.995Z,9.680997
2023-04-29T10:45:39.011Z,9.680980
2023-04-29T10:46:39.109Z,9.681049
2023-04-29T10:47:39.031Z,9.681058
2023-04-29T10:48:38.953Z,9.681103
2023-04-29T10:49:38.961Z,9.681072
2023-04-29T10:50:38.974Z,9.681058
2023-04-29T10:51:38.976Z,9.681088
2023-04-29T10:52:38.950Z,9.681057
2023-04-29T10:53:38.937Z,9.681103
2023-04-29T10:54:38.933Z,9.681177
2023-04-29T10:55:38.952Z,9.681181
2023-04-29T10:56:38.936Z,9.681112
2023-04-29T10:57:38.954Z,9.681091
2023-04-29T10:58:38.913Z,9.681060
2023-04-29T10:59:38.917Z,9.681107
2023-04-29T11:00:38.910Z,9.681023
2023-04-29T11:01:38.920Z,9.681176
2023-04-29T11:02:39.002Z,9.681263
2023-04-29T11:03:39.145Z,9.681291
2023-04-29T11:04:38.945Z,9.681162
2023-04-29T11:05:38.852Z,9.681202
2023-04-29T11:06:38.880Z,9.681130
2023-04-29T11:07:38.865Z,9.681048
2023-04-29T11:08:38.826Z,9.681052
2023-04-29T11:09:38.824Z,9.681113
2023-04-29T11:10:38.852Z,9.681072
2023-04-29T11:11:38.819Z,9.681091
2023-04-29T11:12:38.826Z,9.681082
2023-04-29T11:13:38.831Z,9.681045
2023-04-29T11:14:38.825Z,9.681164
2023-04-29T11:15:38.779Z,9.681061
2023-04-29T11:16:38.775Z,9.681087
2023-04-29T11:17:39.033Z,9.681035
2023-04-29T11:18:38.779Z,9.680937
2023-04-29T11:19:38.749Z,9.680948
2023-04-29T11:20:38.736Z,9.680961
2023-04-29T11:21:38.750Z,9.681055
2023-04-29T11:22:38.740Z,9.681098
2023-04-29T11:23:38.753Z,9.681113
2023-04-29T11:24:38.717Z,9.680985
2023-04-29T11:25:39.599Z,9.681053
2023-04-29T11:26:38.692Z,9.681024
2023-04-29T11:27:38.750Z,9.681081
2023-04-29T11:28:38.662Z,9.681065
2023-04-29T11:29:38.684Z,9.681163
2023-04-29T11:30:38.698Z,9.681046
2023-04-29T11:31:38.809Z,9.681135
2023-04-29T11:32:38.776Z,9.681081
2023-04-29T11:33:38.718Z,9.681108
2023-04-29T11:34:38.619Z,9.681042
2023-04-29T11:35:38.650Z,9.681083
2023-04-29T11:36:38.634Z,9.681098
2023-04-29T11:37:38.630Z,9.681133
2023-04-29T11:38:38.650Z,9.681096
2023-04-29T11:39:38.607Z,9.681163
2023-04-29T11:40:38.580Z,9.681115
2023-04-29T11:41:38.621Z,9.681220
2023-04-29T11:42:38.572Z,9.681149
2023-04-29T11:43:38.623Z,9.681035
2023-04-29T11:44:38.559Z,9.680977